Time;durP1;ratioP1;P1;durP2;ratioP2;P2;SDS_P1;SDS_P2;PMS_P1;PMS_P2;Temp;Humidity;BMP_temperature;BMP_pressure;BME280_temperature;BME280_humidity;BME280_pressure;Samples;Min_cycle;Max_cycle;Signal;HPM_P1;HPM_P2
2023/04/05 00:01:18;;;;;;;10.90;5.70;;;;;;;-3.31;100.00;99300.53;4159299;28;20038;-70
2023/04/05 00:03:19;;;;;;;11.13;6.55;;;;;;;-3.35;100.00;99298.59;4158345;28;20421;-70
2023/04/05 00:05:28;;;;;;;9.15;5.93;;;;;;;-3.42;100.00;99290.72;4158382;28;20056;-70
2023/04/05 00:07:29;;;;;;;10.52;5.70;;;;;;;-3.47;100.00;99288.84;4159391;28;20228;-70
2023/04/05 00:09:29;;;;;;;11.82;6.13;;;;;;;-3.47;100.00;99294.25;4158059;28;20038;-70
2023/04/05 00:11:32;;;;;;;11.18;6.38;;;;;;;-3.47;100.00;99290.75;4158475;28;20041;-70
2023/04/05 00:13:32;;;;;;;7.88;5.60;;;;;;;-3.49;100.00;99288.28;4160584;28;20491;-70
2023/04/05 00:15:32;;;;;;;9.63;6.13;;;;;;;-3.54;100.00;99288.28;4161595;28;20049;-70
2023/04/05 00:17:34;;;;;;;12.35;5.72;;;;;;;-3.60;100.00;99288.53;4162803;28;20277;-70
2023/04/05 00:19:36;;;;;;;9.43;5.80;;;;;;;-3.58;100.00;99292.56;4161376;28;20041;-70
2023/04/05 00:21:38;;;;;;;10.00;5.65;;;;;;;-3.53;100.00;99286.38;4163014;28;20660;-70
2023/04/05 00:23:40;;;;;;;8.77;5.93;;;;;;;-3.49;100.00;99280.16;4160368;28;20033;-70
2023/04/05 00:25:40;;;;;;;9.43;5.60;;;;;;;-3.47;100.00;99288.84;4177168;28;20045;-70
2023/04/05 00:27:43;;;;;;;9.80;5.93;;;;;;;-3.35;100.00;99290.47;4160843;28;20046;-70
2023/04/05 00:29:44;;;;;;;8.30;5.05;;;;;;;-3.35;100.00;99283.19;4160827;28;20577;-70
2023/04/05 00:31:44;;;;;;;9.77;5.78;;;;;;;-3.32;100.00;99284.53;4161992;28;20135;-70
2023/04/05 00:33:45;;;;;;;10.48;5.72;;;;;;;-3.34;100.00;99282.09;4159743;28;20084;-70
2023/04/05 00:35:45;;;;;;;7.70;5.40;;;;;;;-3.43;100.00;99283.69;4161844;28;20033;-70
2023/04/05 00:37:45;;;;;;;11.63;5.93;;;;;;;-3.53;100.00;99283.69;4163711;28;20049;-70
2023/04/05 00:39:46;;;;;;;9.25;5.93;;;;;;;-3.62;100.00;99287.97;4161179;28;20095;-70
2023/04/05 00:41:46;;;;;;;9.02;5.28;;;;;;;-3.69;100.00;99274.69;4161600;28;20095;-70
2023/04/05 00:43:46;;;;;;;11.10;5.93;;;;;;;-3.76;100.00;99268.72;4159699;28;20041;-70
2023/04/05 00:45:47;;;;;;;8.32;5.63;;;;;;;-3.73;100.00;99279.81;4160668;28;20124;-70
2023/04/05 00:47:47;;;;;;;9.77;5.50;;;;;;;-3.71;100.00;99276.88;4161388;28;20185;-70
2023/04/05 00:49:48;;;;;;;9.40;5.60;;;;;;;-3.73;100.00;99281.69;4161440;28;20472;-70
2023/04/05 00:51:49;;;;;;;13.38;5.65;;;;;;;-3.71;100.00;99285.78;4160445;28;20050;-70
2023/04/05 00:53:51;;;;;;;10.63;6.38;;;;;;;-3.71;100.00;99285.78;4160963;28;20428;-70
2023/04/05 00:55:52;;;;;;;9.98;5.63;;;;;;;-3.86;100.00;99280.31;4161095;28;20052;-70
2023/04/05 00:57:54;;;;;;;9.18;6.05;;;;;;;-3.81;100.00;99276.81;4160509;28;20052;-70
2023/04/05 00:59:58;;;;;;;9.30;5.53;;;;;;;-3.73;100.00;99273.59;4164270;28;20065;-70
2023/04/05 01:02:12;;;;;;;10.43;5.35;;;;;;;-3.80;100.00;99270.34;4162540;28;20213;-70
2023/04/05 01:04:13;;;;;;;9.93;5.68;;;;;;;-3.88;100.00;99265.44;4160431;28;20051;-70
2023/04/05 01:06:26;;;;;;;11.25;5.90;;;;;;;-3.89;100.00;99259.19;4162747;28;20113;-70
2023/04/05 01:08:59;;;;;;;10.60;6.20;;;;;;;-3.84;100.00;99267.34;4161163;28;20042;-70
2023/04/05 01:11:02;;;;;;;14.20;5.35;;;;;;;-3.80;100.00;99259.53;4160069;28;20436;-70
2023/04/05 01:13:04;;;;;;;8.95;5.90;;;;;;;-3.78;100.00;99258.19;4165723;28;20339;-70
2023/04/05 01:15:05;;;;;;;13.23;5.83;;;;;;;-3.76;100.00;99260.59;4161322;28;20044;-70
2023/04/05 01:17:08;;;;;;;9.30;5.47;;;;;;;-3.74;100.00;99264.66;4160339;28;20272;-70
2023/04/05 01:19:08;;;;;;;10.55;5.78;;;;;;;-3.77;100.00;99259.78;4176326;28;20110;-70
2023/04/05 01:21:23;;;;;;;9.98;5.72;;;;;;;-3.80;100.00;99265.75;4160289;28;20091;-70
2023/04/05 01:23:52;;;;;;;8.30;5.80;;;;;;;-3.83;100.00;99266.25;4160362;28;20438;-70
2023/04/05 01:26:16;;;;;;;9.75;5.72;;;;;;;-3.87;100.00;99259.78;4160320;28;20437;-70
2023/04/05 01:28:41;;;;;;;6.85;4.97;;;;;;;-3.99;100.00;99267.28;4159481;28;20452;-70
2023/04/05 01:30:47;;;;;;;9.50;5.18;;;;;;;-4.08;100.00;99263.44;4166975;28;20041;-70
2023/04/05 01:33:13;;;;;;;6.90;5.03;;;;;;;-4.17;100.00;99265.84;4158917;28;20076;-70
2023/04/05 01:35:37;;;;;;;9.23;5.93;;;;;;;-4.31;100.00;99264.66;4159333;28;20148;-70
2023/04/05 01:37:39;;;;;;;10.50;6.32;;;;;;;-4.41;100.00;99251.13;4159550;28;20041;-70
2023/04/05 01:39:41;;;;;;;7.55;5.20;;;;;;;-4.43;100.00;99258.66;4160927;28;20052;-70
2023/04/05 01:41:41;;;;;;;10.40;5.90;;;;;;;-4.47;100.00;99268.34;4160212;28;20121;-70
2023/04/05 01:43:42;;;;;;;7.70;5.28;;;;;;;-4.50;100.00;99263.47;4159525;28;20042;-70
2023/04/05 01:45:43;;;;;;;14.02;6.55;;;;;;;-4.45;100.00;99252.72;4159685;28;20045;-70
2023/04/05 01:47:43;;;;;;;8.38;5.70;;;;;;;-4.45;100.00;99247.31;4160481;28;20583;-70
2023/04/05 01:49:44;;;;;;;13.40;5.80;;;;;;;-4.51;100.00;99251.88;4159915;28;20041;-70
2023/04/05 01:51:44;;;;;;;9.35;5.47;;;;;;;-4.57;100.00;99251.00;4160291;28;20103;-70
2023/04/05 01:53:44;;;;;;;9.77;5.60;;;;;;;-4.61;100.00;99252.63;4159607;28;20547;-70
2023/04/05 01:55:45;;;;;;;12.18;5.85;;;;;;;-4.59;100.00;99253.16;4159772;28;20065;-70
2023/04/05 01:57:45;;;;;;;8.50;5.45;;;;;;;-4.50;100.00;99250.78;4160716;28;20397;-70
2023/04/05 01:59:45;;;;;;;9.38;5.45;;;;;;;-4.44;100.00;99246.25;4159719;28;20041;-70
2023/04/05 02:01:46;;;;;;;9.43;5.25;;;;;;;-4.37;100.00;99238.72;4159539;28;20065;-70
2023/04/05 02:03:46;;;;;;;9.35;5.82;;;;;;;-4.24;100.00;99239.03;4159924;28;20052;-70
2023/04/05 02:05:46;;;;;;;8.00;5.03;;;;;;;-4.19;100.00;99234.75;4159705;28;20124;-70
2023/04/05 02:07:46;;;;;;;9.68;5.40;;;;;;;-4.19;100.00;99234.75;4159810;28;20124;-70
2023/04/05 02:09:47;;;;;;;9.35;5.70;;;;;;;-4.19;100.00;99230.16;4159616;28;20048;-70
2023/04/05 02:11:47;;;;;;;10.60;5.68;;;;;;;-4.22;100.00;99225.25;4165036;28;20132;-70
2023/04/05 02:13:47;;;;;;;8.60;5.43;;;;;;;-4.20;100.00;99236.66;4158785;28;20369;-70
2023/04/05 02:15:49;;;;;;;8.35;5.53;;;;;;;-4.27;100.00;99233.38;4159225;28;20324;-70
2023/04/05 02:17:52;;;;;;;7.65;5.30;;;;;;;-4.25;100.00;99223.09;4160549;28;20051;-70
2023/04/05 02:19:53;;;;;;;11.10;5.78;;;;;;;-4.27;100.00;99222.56;4159019;28;20041;-70
2023/04/05 02:21:53;;;;;;;8.73;5.70;;;;;;;-4.29;100.00;99222.00;4160306;28;20534;-70
2023/04/05 02:23:53;;;;;;;8.73;5.40;;;;;;;-4.37;100.00;99227.91;4158663;28;20069;-70
2023/04/05 02:25:54;;;;;;;8.63;5.93;;;;;;;-4.49;100.00;99227.28;4159280;28;20048;-70
2023/04/05 02:27:54;;;;;;;10.75;6.38;;;;;;;-4.57;100.00;99221.31;4160583;28;20267;-70
2023/04/05 02:29:56;;;;;;;12.65;5.82;;;;;;;-4.56;100.00;99231.03;4159430;28;20141;-70
2023/04/05 02:31:56;;;;;;;11.23;5.90;;;;;;;-4.51;100.00;99227.56;4159769;28;20045;-70
2023/04/05 02:33:59;;;;;;;8.60;5.82;;;;;;;-4.50;100.00;99231.06;4159637;28;20050;-70
2023/04/05 02:36:04;;;;;;;9.57;5.80;;;;;;;-4.47;100.00;99234.06;4159016;28;20052;-70
2023/04/05 02:38:04;;;;;;;9.20;5.05;;;;;;;-4.42;100.00;99220.59;4158047;28;20381;-70
2023/04/05 02:40:07;;;;;;;10.10;5.25;;;;;;;-4.42;100.00;99226.00;4160377;28;20112;-70
2023/04/05 02:42:07;;;;;;;9.60;5.85;;;;;;;-4.47;100.00;99220.53;4159611;28;20036;-70
2023/04/05 02:44:08;;;;;;;8.27;4.72;;;;;;;-4.51;100.00;99216.75;4157645;28;20030;-70
2023/04/05 02:46:08;;;;;;;7.03;4.90;;;;;;;-4.57;100.00;99217.78;4165200;28;20412;-70
2023/04/05 02:48:08;;;;;;;7.38;5.00;;;;;;;-4.62;100.00;99218.59;4159893;28;20083;-70
2023/04/05 02:50:09;;;;;;;8.80;5.50;;;;;;;-4.65;100.00;99223.69;4159300;28;20048;-70
2023/04/05 02:52:09;;;;;;;9.35;5.05;;;;;;;-4.74;100.00;99227.94;4159318;28;20021;-70
2023/04/05 02:54:10;;;;;;;9.13;5.00;;;;;;;-4.85;100.00;99227.06;4159006;28;20029;-70
2023/04/05 02:56:13;;;;;;;8.85;5.22;;;;;;;-4.91;100.00;99228.09;4159532;28;20112;-70
2023/04/05 02:58:13;;;;;;;4.97;4.38;;;;;;;-4.92;100.00;99231.88;4172776;28;20071;-70
2023/04/05 03:00:14;;;;;;;8.88;4.72;;;;;;;-4.93;100.00;99235.66;4165492;28;20049;-70
2023/04/05 03:02:15;;;;;;;10.52;5.88;;;;;;;-4.88;100.00;99236.50;4159583;28;20049;-70
2023/04/05 03:04:16;;;;;;;9.20;5.03;;;;;;;-4.89;100.00;99234.03;4157647;28;20470;-70
2023/04/05 03:06:16;;;;;;;7.28;4.68;;;;;;;-4.94;100.00;99232.13;4159014;28;20076;-70
2023/04/05 03:08:22;;;;;;;7.15;4.57;;;;;;;-4.97;100.00;99237.22;4164829;28;20419;-70
2023/04/05 03:10:25;;;;;;;7.30;5.03;;;;;;;-4.90;100.00;99232.41;4159538;28;20451;-70
2023/04/05 03:12:25;;;;;;;6.80;5.18;;;;;;;-4.92;100.00;99240.78;4159159;28;20042;-70
2023/04/05 03:14:26;;;;;;;8.02;4.35;;;;;;;-4.90;100.00;99229.72;4177557;28;20033;-70
2023/04/05 03:16:27;;;;;;;6.30;4.55;;;;;;;-5.00;100.00;99227.75;4158960;28;20067;-70
2023/04/05 03:18:30;;;;;;;7.55;5.53;;;;;;;-4.98;100.00;99236.41;4159963;28;20139;-70
2023/04/05 03:20:30;;;;;;;10.65;5.13;;;;;;;-4.92;100.00;99234.56;4159218;28;20048;-70
2023/04/05 03:22:32;;;;;;;7.95;5.15;;;;;;;-4.90;100.00;99238.63;4159175;28;20045;-70
2023/04/05 03:24:32;;;;;;;9.98;5.82;;;;;;;-4.95;100.00;99238.63;4158393;28;20045;-70
2023/04/05 03:26:33;;;;;;;8.38;5.20;;;;;;;-4.95;100.00;99235.09;4164308;28;20052;-70
2023/04/05 03:28:34;;;;;;;9.25;5.05;;;;;;;-5.00;100.00;99235.88;4159056;28;20090;-70
2023/04/05 03:30:34;;;;;;;9.25;5.13;;;;;;;-5.08;100.00;99247.13;4158487;28;20037;-70
2023/04/05 03:32:35;;;;;;;12.23;5.28;;;;;;;-5.18;100.00;99241.66;4158378;28;20044;-70
2023/04/05 03:34:35;;;;;;;8.70;6.10;;;;;;;-5.19;100.00;99240.03;4160008;28;20045;-70
2023/04/05 03:36:41;;;;;;;7.93;5.28;;;;;;;-5.22;100.00;99244.03;4162724;28;20103;-70
2023/04/05 03:38:44;;;;;;;7.85;5.20;;;;;;;-5.21;100.00;99242.19;4159366;28;20047;-70
2023/04/05 03:40:45;;;;;;;12.90;6.45;;;;;;;-5.16;100.00;99236.81;4161574;28;20437;-70
2023/04/05 03:42:45;;;;;;;7.72;5.47;;;;;;;-5.17;100.00;99241.38;4158292;28;20045;-70
2023/04/05 03:44:47;;;;;;;9.00;5.40;;;;;;;-5.10;100.00;99238.47;4158237;28;20037;-70
2023/04/05 03:46:47;;;;;;;7.72;5.18;;;;;;;-5.03;100.00;99239.09;4158390;28;20488;-70
2023/04/05 03:48:47;;;;;;;6.93;5.10;;;;;;;-5.01;100.00;99231.53;4162199;28;20030;-70
2023/04/05 03:50:48;;;;;;;8.25;5.05;;;;;;;-5.00;100.00;99226.94;4162269;28;20046;-70
2023/04/05 03:52:48;;;;;;;9.20;5.28;;;;;;;-5.04;100.00;99226.66;4161428;28;20133;-70
2023/04/05 03:54:48;;;;;;;8.48;5.03;;;;;;;-4.94;100.00;99228.63;4162217;28;20045;-70
2023/04/05 03:56:49;;;;;;;10.25;5.70;;;;;;;-4.97;100.00;99221.84;4162129;28;20127;-70
2023/04/05 03:58:51;;;;;;;8.40;4.88;;;;;;;-5.04;100.00;99223.16;4163740;28;20124;-70
2023/04/05 04:00:52;;;;;;;11.05;6.22;;;;;;;-5.07;100.00;99218.25;4165655;28;20276;-70
2023/04/05 04:02:52;;;;;;;7.57;4.72;;;;;;;-5.11;100.00;99220.66;4161801;28;20515;-70
2023/04/05 04:04:53;;;;;;;8.10;4.68;;;;;;;-5.12;100.00;99219.06;4163310;28;20050;-70
2023/04/05 04:06:53;;;;;;;10.45;6.00;;;;;;;-5.16;100.00;99218.72;4162885;28;20095;-70
2023/04/05 04:08:53;;;;;;;9.95;4.90;;;;;;;-5.16;100.00;99228.72;4163876;28;20041;-70
2023/04/05 04:10:54;;;;;;;11.38;4.65;;;;;;;-5.21;100.00;99216.00;4161365;28;20041;-70
2023/04/05 04:12:54;;;;;;;9.65;5.40;;;;;;;-5.22;100.00;99227.03;4161079;28;20050;-70
2023/04/05 04:14:54;;;;;;;7.68;4.70;;;;;;;-5.26;100.00;99228.63;4162242;28;20446;-70
2023/04/05 04:16:55;;;;;;;9.20;4.97;;;;;;;-5.24;100.00;99230.00;4162614;28;20051;-70
2023/04/05 04:18:55;;;;;;;11.43;5.65;;;;;;;-5.27;100.00;99227.81;4162129;28;20029;-70
2023/04/05 04:20:57;;;;;;;8.18;5.10;;;;;;;-5.30;100.00;99227.50;4160982;28;20377;-70
2023/04/05 04:22:57;;;;;;;6.73;5.03;;;;;;;-5.39;100.00;99230.66;4161240;28;20052;-70
2023/04/05 04:25:03;;;;;;;10.60;5.60;;;;;;;-5.45;100.00;99230.91;4165278;28;20434;-70
2023/04/05 04:27:05;;;;;;;9.40;5.30;;;;;;;-5.54;100.00;99233.25;4160925;28;20077;-70
2023/04/05 04:29:06;;;;;;;8.45;5.20;;;;;;;-5.54;100.00;99225.16;4162726;28;20071;-70
2023/04/05 04:31:12;;;;;;;9.82;5.47;;;;;;;-5.56;100.00;99237.25;4160911;28;20041;-70
2023/04/05 04:33:12;;;;;;;10.48;6.05;;;;;;;-5.57;100.00;99232.91;4160739;28;20576;-70
2023/04/05 04:35:17;;;;;;;9.20;5.80;;;;;;;-5.60;100.00;99234.25;4165395;28;20140;-70
2023/04/05 04:37:17;;;;;;;10.50;5.60;;;;;;;-5.57;100.00;99238.31;4162802;28;20060;-70
2023/04/05 04:39:18;;;;;;;10.85;6.63;;;;;;;-5.55;100.00;99242.38;4160617;28;20073;-70
2023/04/05 04:41:18;;;;;;;11.23;6.38;;;;;;;-5.59;100.00;99232.38;4160689;28;20096;-70
2023/04/05 04:43:26;;;;;;;9.93;6.10;;;;;;;-5.58;100.00;99234.81;4160816;28;20472;-70
2023/04/05 04:45:26;;;;;;;11.48;5.97;;;;;;;-5.52;100.00;99235.69;4161405;28;20076;-70
2023/04/05 04:47:26;;;;;;;9.02;5.30;;;;;;;-5.49;100.00;99240.56;4160349;28;20076;-70
2023/04/05 04:49:27;;;;;;;9.35;6.00;;;;;;;-5.47;100.00;99247.31;4164772;28;20072;-70
2023/04/05 04:51:27;;;;;;;10.75;5.55;;;;;;;-5.54;100.00;99244.03;4161793;28;20326;-70
2023/04/05 04:53:27;;;;;;;12.55;6.13;;;;;;;-5.50;100.00;99239.75;4159707;28;20378;-70
2023/04/05 04:55:28;;;;;;;9.63;5.90;;;;;;;-5.49;100.00;99238.66;4161235;28;20120;-70
2023/04/05 04:57:29;;;;;;;11.88;6.25;;;;;;;-5.53;100.00;99225.97;4161624;28;20071;-70
2023/04/05 04:59:30;;;;;;;13.43;6.13;;;;;;;-5.49;100.00;99232.47;4159358;28;20041;-70
2023/04/05 05:01:32;;;;;;;12.77;6.00;;;;;;;-5.55;100.00;99225.38;4161184;28;20064;-70
2023/04/05 05:03:34;;;;;;;13.90;7.03;;;;;;;-5.57;100.00;99219.44;4160640;28;20133;-70
2023/04/05 05:05:35;;;;;;;11.85;6.88;;;;;;;-5.54;100.00;99222.47;4160984;28;20049;-70
2023/04/05 05:07:36;;;;;;;11.15;6.22;;;;;;;-5.54;100.00;99222.47;4160459;28;20068;-70
2023/04/05 05:09:36;;;;;;;18.40;6.53;;;;;;;-5.55;100.00;99226.19;4161034;28;20069;-70
2023/04/05 05:11:36;;;;;;;11.82;6.40;;;;;;;-5.49;100.00;99227.06;4160632;28;20068;-70
2023/04/05 05:13:37;;;;;;;11.93;6.45;;;;;;;-5.55;100.00;99212.72;4159717;28;20481;-70
2023/04/05 05:15:40;;;;;;;9.25;6.30;;;;;;;-5.51;100.00;99218.44;4160652;28;20382;-70
2023/04/05 05:17:40;;;;;;;11.32;7.00;;;;;;;-5.49;100.00;99227.88;4160723;28;20103;-70
2023/04/05 05:19:40;;;;;;;10.38;6.60;;;;;;;-5.52;100.00;99216.81;4160298;28;20037;-70
2023/04/05 05:21:41;;;;;;;13.40;6.40;;;;;;;-5.54;100.00;99217.06;4166223;28;20051;-70
2023/04/05 05:23:41;;;;;;;11.60;7.20;;;;;;;-5.55;100.00;99214.59;4161159;28;20156;-70
2023/04/05 05:25:41;;;;;;;11.27;6.45;;;;;;;-5.54;100.00;99216.25;4160395;28;20056;-70
2023/04/05 05:27:42;;;;;;;9.98;6.82;;;;;;;-5.49;100.00;99214.41;4160856;28;20053;-70
2023/04/05 05:29:42;;;;;;;8.32;6.28;;;;;;;-5.49;100.00;99218.97;4161521;28;20037;-70
2023/04/05 05:31:42;;;;;;;11.30;6.68;;;;;;;-5.51;100.00;99213.84;4160813;28;20102;-70
2023/04/05 05:33:46;;;;;;;8.27;5.63;;;;;;;-5.51;100.00;99216.53;4165925;28;20564;-70
2023/04/05 05:35:48;;;;;;;10.07;6.20;;;;;;;-5.54;100.00;99211.66;4160278;28;20034;-70
2023/04/05 05:37:48;;;;;;;13.57;7.35;;;;;;;-5.54;100.00;99218.94;4161156;28;20131;-70
2023/04/05 05:39:49;;;;;;;14.52;7.35;;;;;;;-5.61;100.00;99210.25;4159650;28;20532;-70
2023/04/05 05:41:49;;;;;;;12.38;7.43;;;;;;;-5.60;100.00;99215.38;4161135;28;20076;-70
2023/04/05 05:43:49;;;;;;;12.38;6.53;;;;;;;-5.45;100.00;99207.44;4160099;28;20128;-70
2023/04/05 05:45:50;;;;;;;13.18;7.07;;;;;;;-5.40;100.00;99214.75;4159502;28;20061;-70
2023/04/05 05:47:50;;;;;;;12.02;6.50;;;;;;;-5.28;100.00;99212.72;4163930;28;20740;-70
2023/04/05 05:49:51;;;;;;;11.90;7.03;;;;;;;-5.23;100.00;99212.72;4161531;28;20038;-70
2023/04/05 05:51:55;;;;;;;11.90;7.32;;;;;;;-5.16;100.00;99220.63;4162366;28;20376;-70
2023/04/05 05:53:55;;;;;;;12.77;7.60;;;;;;;-5.11;100.00;99221.47;4158004;28;20040;-70
2023/04/05 05:55:56;;;;;;;12.90;6.88;;;;;;;-5.07;100.00;99220.97;4161130;28;20046;-70
2023/04/05 05:57:56;;;;;;;13.23;7.18;;;;;;;-4.97;100.00;99218.34;4162089;28;20080;-70
2023/04/05 05:59:56;;;;;;;14.55;7.50;;;;;;;-4.92;100.00;99210.28;4160134;28;20063;-70
2023/04/05 06:01:57;;;;;;;16.55;7.68;;;;;;;-4.87;100.00;99215.72;4160675;28;20466;-70
2023/04/05 06:03:57;;;;;;;14.48;8.50;;;;;;;-4.85;100.00;99225.19;4160027;28;20041;-70
2023/04/05 06:05:58;;;;;;;16.13;7.50;;;;;;;-4.86;100.00;99220.06;4160216;28;20104;-70
2023/04/05 06:07:58;;;;;;;18.35;8.10;;;;;;;-4.85;100.00;99216.28;4160024;28;20138;-70
2023/04/05 06:09:59;;;;;;;17.50;8.18;;;;;;;-4.81;100.00;99217.38;4160133;28;20080;-70
2023/04/05 06:12:00;;;;;;;14.75;7.70;;;;;;;-4.74;100.00;99219.84;4160069;28;20059;-70
2023/04/05 06:14:00;;;;;;;15.15;8.32;;;;;;;-4.74;100.00;99217.97;4158254;28;20037;-70
2023/04/05 06:16:01;;;;;;;15.70;7.80;;;;;;;-4.69;100.00;99219.91;4160022;28;20068;-70
2023/04/05 06:18:01;;;;;;;18.13;7.57;;;;;;;-4.66;100.00;99224.75;4164624;28;20445;-70
2023/04/05 06:20:02;;;;;;;14.98;7.18;;;;;;;-4.66;100.00;99217.47;4159920;28;20030;-70
2023/04/05 06:22:02;;;;;;;23.98;8.30;;;;;;;-4.58;100.00;99224.28;4158197;28;20029;-70
2023/04/05 06:24:03;;;;;;;16.10;7.55;;;;;;;-4.53;100.00;99217.03;4159839;28;20036;-70
2023/04/05 06:26:04;;;;;;;13.18;7.72;;;;;;;-4.49;100.00;99217.31;4164350;28;20431;-70
2023/04/05 06:28:05;;;;;;;14.65;7.07;;;;;;;-4.38;100.00;99212.78;4158327;28;20037;-70
2023/04/05 06:30:06;;;;;;;14.27;7.10;;;;;;;-4.33;100.00;99218.19;4160815;28;20036;-70
2023/04/05 06:32:06;;;;;;;15.13;6.63;;;;;;;-4.28;100.00;99216.34;4159645;28;20038;-70
2023/04/05 06:34:07;;;;;;;11.85;5.85;;;;;;;-4.18;100.00;99217.47;4158263;28;20572;-70
2023/04/05 06:36:08;;;;;;;12.27;6.93;;;;;;;-4.09;100.00;99213.19;4159789;28;20029;-70
2023/04/05 06:38:08;;;;;;;14.65;6.97;;;;;;;-3.96;100.00;99218.09;4160102;28;20029;-70
2023/04/05 06:40:09;;;;;;;15.40;8.25;;;;;;;-3.83;100.00;99219.47;4159490;28;20374;-70
2023/04/05 06:42:09;;;;;;;13.25;7.63;;;;;;;-3.76;100.00;99206.53;4159820;28;20017;-70
2023/04/05 06:44:10;;;;;;;24.25;9.00;;;;;;;-3.68;100.00;99214.13;4164141;28;20048;-70
2023/04/05 06:46:11;;;;;;;24.85;10.65;;;;;;;-3.63;100.00;99219.56;4159356;28;20025;-70
2023/04/05 06:48:11;;;;;;;21.88;10.00;;;;;;;-3.58;100.00;99216.03;4159780;28;20033;-70
2023/04/05 06:50:12;;;;;;;21.20;9.35;;;;;;;-3.55;100.00;99210.91;4159380;28;20285;-70
2023/04/05 06:52:12;;;;;;;19.02;9.20;;;;;;;-3.48;100.00;99208.72;4161058;28;20484;-70
2023/04/05 06:54:13;;;;;;;18.17;9.05;;;;;;;-3.44;100.00;99207.13;4159412;28;20044;-70
2023/04/05 06:56:13;;;;;;;17.48;8.85;;;;;;;-3.37;100.00;99214.19;4159116;28;20418;-70
2023/04/05 06:58:13;;;;;;;16.58;8.20;;;;;;;-3.32;100.00;99214.97;4160206;28;20370;-70
2023/04/05 07:00:16;;;;;;;14.18;8.15;;;;;;;-3.27;100.00;99219.59;4159193;28;20508;-70
2023/04/05 07:02:16;;;;;;;14.10;8.07;;;;;;;-3.22;100.00;99211.50;4159211;28;20025;-70
2023/04/05 07:04:16;;;;;;;15.38;7.53;;;;;;;-3.12;100.00;99212.31;4159155;28;20183;-70
2023/04/05 07:06:17;;;;;;;12.15;7.30;;;;;;;-3.04;100.00;99215.56;4158698;28;20489;-70
2023/04/05 07:08:18;;;;;;;13.18;7.10;;;;;;;-2.96;100.00;99217.72;4159814;28;20106;-70
2023/04/05 07:10:19;;;;;;;14.07;7.13;;;;;;;-2.89;100.00;99216.38;4158688;28;20029;-70
2023/04/05 07:12:19;;;;;;;12.40;7.00;;;;;;;-2.88;100.00;99211.75;4160005;28;20252;-70
2023/04/05 07:14:20;;;;;;;19.23;6.90;;;;;;;-2.80;100.00;99213.09;4159042;28;20091;-70
2023/04/05 07:16:21;;;;;;;12.07;7.03;;;;;;;-2.70;100.00;99213.09;4160226;28;20103;-70
2023/04/05 07:18:22;;;;;;;14.75;7.53;;;;;;;-2.56;100.00;99209.53;4160160;28;20049;-70
2023/04/05 07:20:22;;;;;;;13.48;7.50;;;;;;;-2.41;100.00;99208.66;4158162;28;20088;-70
2023/04/05 07:22:22;;;;;;;12.10;7.13;;;;;;;-2.27;100.00;99212.44;4162219;28;20116;-70
2023/04/05 07:24:23;;;;;;;12.68;7.10;;;;;;;-2.17;100.00;99206.16;4163083;28;20192;-70
2023/04/05 07:26:23;;;;;;;12.75;7.03;;;;;;;-2.05;100.00;99216.72;4162208;28;20041;-70
2023/04/05 07:28:23;;;;;;;10.88;7.50;;;;;;;-1.94;100.00;99215.56;4164599;28;20073;-70
2023/04/05 07:30:25;;;;;;;12.73;8.07;;;;;;;-1.87;100.00;99209.84;4163372;28;20536;-70
2023/04/05 07:32:25;;;;;;;15.82;8.60;;;;;;;-1.79;100.00;99207.34;4162931;28;20438;-70
2023/04/05 07:34:26;;;;;;;13.15;7.93;;;;;;;-1.67;100.00;99214.34;4161171;28;20044;-70
2023/04/05 07:36:29;;;;;;;14.73;7.88;;;;;;;-1.56;100.00;99210.50;4163288;28;20370;-70
2023/04/05 07:38:29;;;;;;;14.40;8.30;;;;;;;-1.47;100.00;99217.75;4162487;28;20060;-70
2023/04/05 07:40:30;;;;;;;10.98;7.25;;;;;;;-1.38;100.00;99212.56;4162288;28;20041;-70
2023/04/05 07:42:30;;;;;;;15.52;7.82;;;;;;;-1.28;100.00;99225.25;4162371;28;20478;-70
2023/04/05 07:44:31;;;;;;;14.15;9.00;;;;;;;-1.21;100.00;99212.16;4181055;28;20077;-70
2023/04/05 07:46:31;;;;;;;13.27;7.00;;;;;;;-1.05;100.00;99212.84;4163316;28;20120;-70
2023/04/05 07:48:31;;;;;;;14.05;7.10;;;;;;;-0.94;100.00;99215.19;4164581;28;20064;-70
2023/04/05 07:50:33;;;;;;;10.13;7.45;;;;;;;-0.86;100.00;99206.44;4167759;28;20048;-70
2023/04/05 07:52:33;;;;;;;12.10;5.90;;;;;;;-0.76;100.00;99207.44;4161898;28;20418;-70
2023/04/05 07:54:37;;;;;;;7.63;4.93;;;;;;;-0.66;100.00;99205.44;4161194;28;20046;-70
2023/04/05 07:56:37;;;;;;;9.05;5.75;;;;;;;-0.58;100.00;99206.72;4162355;28;20491;-70
2023/04/05 07:58:40;;;;;;;10.40;5.72;;;;;;;-0.52;100.00;99205.56;4162112;28;20068;-70
2023/04/05 08:00:41;;;;;;;9.02;5.88;;;;;;;-0.41;100.00;99212.53;4161852;28;20045;-70
2023/04/05 08:02:41;;;;;;;10.18;5.95;;;;;;;-0.29;100.00;99203.97;4162640;28;20063;-70
2023/04/05 08:04:42;;;;;;;8.73;5.72;;;;;;;-0.16;100.00;99214.16;4162034;28;20049;-70
2023/04/05 08:06:42;;;;;;;9.52;5.38;;;;;;;-0.12;100.00;99206.22;4161527;28;20033;-70
2023/04/05 08:08:44;;;;;;;9.07;5.60;;;;;;;-0.09;100.00;99211.88;4167289;28;20034;-70
2023/04/05 08:10:44;;;;;;;8.10;5.45;;;;;;;0.00;99.64;99212.09;4161568;28;20485;-70
2023/04/05 08:12:45;;;;;;;8.70;5.75;;;;;;;0.05;97.53;99205.75;4161329;28;20045;-70
2023/04/05 08:14:45;;;;;;;5.78;4.30;;;;;;;0.06;96.41;99200.00;4161410;28;20034;-70
2023/04/05 08:16:46;;;;;;;6.68;4.80;;;;;;;0.11;96.36;99204.59;4162197;28;20408;-70
2023/04/05 08:18:46;;;;;;;7.03;5.03;;;;;;;0.13;95.62;99199.66;4161659;28;20405;-70
2023/04/05 08:20:52;;;;;;;7.63;5.20;;;;;;;0.19;96.70;99203.94;4161031;28;20033;-70
2023/04/05 08:22:52;;;;;;;8.30;5.47;;;;;;;0.26;97.13;99201.69;4162241;28;20823;-70
2023/04/05 08:24:53;;;;;;;8.05;4.65;;;;;;;0.30;96.42;99204.63;4161390;28;20042;-70
2023/04/05 08:26:53;;;;;;;7.78;4.78;;;;;;;0.36;97.47;99203.44;4161177;28;20052;-70
2023/04/05 08:28:53;;;;;;;6.90;4.85;;;;;;;0.36;97.77;99196.09;4162966;28;20358;-70
2023/04/05 08:30:56;;;;;;;7.20;5.10;;;;;;;0.40;97.02;99197.09;4161364;28;20568;-70
2023/04/05 08:32:56;;;;;;;;;;;;;;;0.51;93.85;99189.63;4161607;28;20048;-70
2023/04/05 08:34:56;;;;;;;6.13;4.63;;;;;;;0.52;93.07;99186.59;4160977;28;19909;-70
2023/04/05 08:36:58;;;;;;;6.05;4.47;;;;;;;0.57;92.96;99191.16;4163970;28;20167;-70
2023/04/05 08:38:59;;;;;;;6.03;4.72;;;;;;;0.63;92.93;99186.44;4162358;28;20242;-70
2023/04/05 08:41:07;;;;;;;8.60;4.70;;;;;;;0.76;91.80;99189.25;4161002;28;20164;-70
2023/04/05 08:43:29;;;;;;;8.35;4.90;;;;;;;0.83;92.69;99191.59;4159893;28;20111;-70
2023/04/05 08:45:31;;;;;;;6.78;4.40;;;;;;;0.88;92.41;99191.50;4160921;28;20076;-70
2023/04/05 08:47:34;;;;;;;7.95;5.03;;;;;;;0.97;92.31;99195.16;4167407;28;20053;-70
2023/04/05 08:49:35;;;;;;;7.60;4.78;;;;;;;1.03;89.29;99193.16;4161900;28;20041;-70
2023/04/05 08:51:38;;;;;;;9.35;5.88;;;;;;;1.04;86.82;99181.16;4160520;28;20071;-70
2023/04/05 08:53:38;;;;;;;8.45;5.20;;;;;;;1.02;89.00;99184.19;4161181;28;20034;-70
2023/04/05 08:55:39;;;;;;;8.82;5.28;;;;;;;1.07;87.36;99186.00;4161208;28;20422;-70
2023/04/05 08:57:43;;;;;;;8.18;5.05;;;;;;;1.09;84.12;99187.34;4160939;28;20053;-70
2023/04/05 08:59:44;;;;;;;6.50;4.88;;;;;;;1.15;87.76;99187.25;4160948;28;20396;-70
2023/04/05 09:01:47;;;;;;;5.93;4.65;;;;;;;1.18;87.04;99192.13;4161040;28;20041;-70
2023/04/05 09:03:50;;;;;;;6.38;3.83;;;;;;;1.21;86.38;99178.69;4160054;28;20114;-70
2023/04/05 09:05:52;;;;;;;5.45;4.00;;;;;;;1.28;83.23;99187.28;4160684;28;20142;-70
2023/04/05 09:07:53;;;;;;;20.35;9.30;;;;;;;1.37;80.72;99179.22;4164399;28;20517;-70
2023/04/05 09:09:58;;;;;;;10.00;6.03;;;;;;;1.42;82.26;99187.31;4160504;28;20046;-70
2023/04/05 09:11:58;;;;;;;10.85;5.25;;;;;;;1.47;82.02;99180.94;4161885;28;20152;-70
2023/04/05 09:14:01;;;;;;;7.10;5.20;;;;;;;1.59;81.93;99184.00;4159686;28;20037;-70
2023/04/05 09:16:02;;;;;;;14.10;7.05;;;;;;;1.72;77.82;99187.84;4162270;28;20386;-71
2023/04/05 09:18:02;;;;;;;15.20;6.72;;;;;;;1.80;79.94;99179.75;4160584;28;20026;-71
2023/04/05 09:20:03;;;;;;;6.28;4.80;;;;;;;1.87;79.48;99187.56;4160759;28;20033;-71
2023/04/05 09:22:05;;;;;;;5.28;3.97;;;;;;;1.95;77.64;99176.72;4160800;28;20532;-71
2023/04/05 09:24:06;;;;;;;14.65;7.00;;;;;;;2.09;76.10;99192.31;4160258;28;20409;-71
2023/04/05 09:26:20;;;;;;;9.38;5.10;;;;;;;2.19;77.79;99178.44;4165899;28;20036;-71